createdAt,value
2024-05-09T00:00:55.830Z,10.53
2024-05-09T00:06:00.689Z,10.46
2024-05-09T00:11:08.295Z,10.60
2024-05-09T00:16:13.037Z,10.40
2024-05-09T00:21:17.738Z,10.12
2024-05-09T00:26:25.140Z,10.10
2024-05-09T00:31:29.979Z,10.12
2024-05-09T00:36:34.723Z,10.03
2024-05-09T00:41:42.067Z,9.95
2024-05-09T00:46:47.074Z,9.68
2024-05-09T00:51:52.792Z,9.80
2024-05-09T00:57:00.214Z,9.85
2024-05-09T01:02:05.065Z,9.41
2024-05-09T01:07:10.148Z,9.30
2024-05-09T01:12:17.532Z,9.35
2024-05-09T01:17:22.562Z,9.22
2024-05-09T01:22:31.139Z,9.24
2024-05-09T01:27:38.458Z,9.34
2024-05-09T01:32:43.620Z,8.89
2024-05-09T01:37:48.618Z,9.03
2024-05-09T01:42:55.872Z,8.99
2024-05-09T01:48:01.018Z,8.71
2024-05-09T01:53:06.205Z,8.68
2024-05-09T01:58:13.589Z,8.82
2024-05-09T02:03:18.685Z,8.53
2024-05-09T02:08:24.012Z,8.63
2024-05-09T02:13:31.308Z,8.57
2024-05-09T02:18:35.985Z,8.47
2024-05-09T02:23:40.656Z,8.19
2024-05-09T02:28:48.085Z,8.06
2024-05-09T02:33:52.931Z,8.11
2024-05-09T02:38:57.731Z,7.98
2024-05-09T02:44:05.106Z,7.91
2024-05-09T02:49:09.968Z,7.77
2024-05-09T02:54:14.693Z,7.87
2024-05-09T02:59:22.126Z,7.74
2024-05-09T03:04:26.940Z,7.64
2024-05-09T03:09:31.649Z,7.49
2024-05-09T03:14:38.988Z,7.50
2024-05-09T03:19:43.657Z,7.42
2024-05-09T03:24:48.301Z,7.42
2024-05-09T03:29:55.643Z,7.51
2024-05-09T03:35:00.543Z,7.50
2024-05-09T03:40:09.277Z,7.38
2024-05-09T03:45:19.630Z,7.34
2024-05-09T03:50:30.165Z,7.58
2024-05-09T03:55:39.080Z,7.52
2024-05-09T04:00:46.463Z,7.35
2024-05-09T04:05:51.177Z,7.46
2024-05-09T04:10:56.108Z,7.60
2024-05-09T04:16:03.429Z,7.82
2024-05-09T04:21:09.138Z,9.09
2024-05-09T04:26:14.101Z,10.04
2024-05-09T04:31:21.468Z,11.05
2024-05-09T04:36:26.149Z,11.85
2024-05-09T04:41:30.905Z,12.48
2024-05-09T04:46:39.678Z,13.01
2024-05-09T04:51:44.534Z,12.77
2024-05-09T04:56:49.196Z,12.92
2024-05-09T05:01:56.687Z,13.22
2024-05-09T05:07:02.809Z,13.65
2024-05-09T05:12:28.424Z,13.60
2024-05-09T05:17:36.026Z,13.68
2024-05-09T05:22:43.156Z,13.83
2024-05-09T05:27:47.812Z,13.85
2024-05-09T05:32:55.242Z,13.91
2024-05-09T05:38:00.002Z,14.11
2024-05-09T05:43:04.722Z,14.15
2024-05-09T05:48:12.590Z,14.00
2024-05-09T05:53:17.412Z,14.70
2024-05-09T05:58:22.581Z,14.69
2024-05-09T06:03:30.448Z,15.03
2024-05-09T06:08:35.227Z,15.81
2024-05-09T06:13:39.988Z,15.80
2024-05-09T06:18:47.524Z,15.83
2024-05-09T06:23:53.448Z,16.57
2024-05-09T06:28:58.796Z,16.90
2024-05-09T06:34:06.196Z,17.09
2024-05-09T06:39:11.105Z,16.61
2024-05-09T06:44:15.906Z,17.24
2024-05-09T06:49:23.355Z,17.33
2024-05-09T06:54:29.131Z,16.37
2024-05-09T06:59:33.899Z,18.39
2024-05-09T07:04:41.235Z,18.75
2024-05-09T07:09:46.362Z,18.21
2024-05-09T07:14:51.054Z,18.23
2024-05-09T07:19:58.503Z,19.18
2024-05-09T07:25:03.172Z,18.69
2024-05-09T07:30:11.506Z,18.17
2024-05-09T07:35:18.980Z,17.41
2024-05-09T07:40:32.670Z,18.57
2024-05-09T07:45:50.460Z,19.38
2024-05-09T07:53:07.620Z,19.54
2024-05-09T07:56:26.536Z,20.37
2024-05-09T08:01:31.717Z,20.85
2024-05-09T08:06:39.181Z,20.63
2024-05-09T08:11:44.896Z,19.09
2024-05-09T08:16:49.634Z,19.31
2024-05-09T08:21:56.993Z,20.21
2024-05-09T08:27:01.683Z,19.39
2024-05-09T08:32:07.989Z,18.80
2024-05-09T08:37:21.497Z,19.40
2024-05-09T08:42:31.862Z,20.30
2024-05-09T08:47:36.726Z,20.34
2024-05-09T08:52:44.193Z,21.62
2024-05-09T08:57:49.461Z,20.77
2024-05-09T09:02:55.338Z,19.30
2024-05-09T09:08:02.641Z,18.11
2024-05-09T09:13:09.785Z,19.20
2024-05-09T09:18:17.826Z,18.11
2024-05-09T09:23:27.378Z,20.17
2024-05-09T09:28:32.295Z,19.63
2024-05-09T09:33:37.801Z,20.90
2024-05-09T09:38:46.490Z,20.06
2024-05-09T09:43:51.565Z,18.68
2024-05-09T09:48:56.442Z,18.94
2024-05-09T09:54:06.554Z,19.46
2024-05-09T09:59:12.324Z,19.23
2024-05-09T10:04:19.028Z,17.37
2024-05-09T10:09:26.841Z,17.82
2024-05-09T10:14:34.600Z,17.17
2024-05-09T10:19:39.357Z,19.14
2024-05-09T10:24:54.639Z,18.99
2024-05-09T10:30:01.264Z,20.35
2024-05-09T10:35:11.666Z,18.30
2024-05-09T10:40:26.545Z,19.70
2024-05-09T10:45:38.182Z,19.73
2024-05-09T10:50:43.874Z,18.22
2024-05-09T10:56:01.479Z,17.28
2024-05-09T11:01:07.309Z,18.42
2024-05-09T11:06:13.633Z,20.68
2024-05-09T11:11:21.227Z,21.42
2024-05-09T11:16:26.135Z,20.61
2024-05-09T11:21:31.075Z,20.99
2024-05-09T11:26:38.541Z,19.18
2024-05-09T11:31:48.752Z,20.21
2024-05-09T11:36:53.764Z,20.70
2024-05-09T11:42:01.162Z,21.69
2024-05-09T11:47:07.159Z,21.07
2024-05-09T11:52:12.028Z,20.02
2024-05-09T11:57:19.399Z,21.71
2024-05-09T12:02:24.228Z,19.81
2024-05-09T12:07:29.236Z,20.37
2024-05-09T12:12:37.529Z,19.24
2024-05-09T12:17:42.341Z,20.21
2024-05-09T12:22:47.613Z,19.26
2024-05-09T12:27:55.052Z,19.32
2024-05-09T12:32:59.904Z,20.99
2024-05-09T12:38:05.040Z,21.73
2024-05-09T12:43:12.610Z,21.90
2024-05-09T12:48:17.712Z,21.73
2024-05-09T12:53:22.501Z,21.82
2024-05-09T12:58:29.966Z,19.04
2024-05-09T13:03:34.895Z,18.85
2024-05-09T13:08:39.745Z,19.27
2024-05-09T13:13:47.438Z,19.18
2024-05-09T13:18:52.309Z,20.93
2024-05-09T13:23:58.333Z,21.13
2024-05-09T13:29:06.578Z,19.89
2024-05-09T13:34:11.372Z,18.44
2024-05-09T13:39:16.102Z,20.52
2024-05-09T13:44:23.364Z,19.12
2024-05-09T13:49:28.171Z,18.56
2024-05-09T13:54:32.961Z,19.53
2024-05-09T13:59:40.396Z,20.78
2024-05-09T14:04:45.323Z,21.43
2024-05-09T14:09:50.149Z,21.75
2024-05-09T14:14:57.489Z,20.94
2024-05-09T14:20:02.392Z,19.82
2024-05-09T14:25:09.464Z,20.27
2024-05-09T14:30:22.968Z,19.09
2024-05-09T14:35:35.330Z,19.74
2024-05-09T14:40:43.589Z,19.69
2024-05-09T14:45:51.648Z,20.87
2024-05-09T14:50:56.419Z,21.15
2024-05-09T14:56:01.161Z,20.30
2024-05-09T15:01:08.529Z,20.18
2024-05-09T15:06:13.302Z,19.81
2024-05-09T15:11:18.033Z,20.37
2024-05-09T15:16:25.535Z,19.40
2024-05-09T15:21:30.345Z,18.66
2024-05-09T15:26:34.994Z,19.55
2024-05-09T15:31:42.411Z,19.51
2024-05-09T15:36:51.050Z,20.39
2024-05-09T15:41:56.462Z,18.94
2024-05-09T15:47:03.867Z,20.11
2024-05-09T15:52:08.897Z,20.45
2024-05-09T15:57:14.156Z,20.36
2024-05-09T16:02:21.588Z,20.54
2024-05-09T16:07:26.599Z,20.49
2024-05-09T16:12:31.310Z,20.71
2024-05-09T16:17:38.777Z,19.68
2024-05-09T16:22:44.058Z,19.89
2024-05-09T16:27:48.895Z,19.75
2024-05-09T16:32:56.356Z,19.60
2024-05-09T16:38:01.113Z,19.64
2024-05-09T16:43:06.646Z,19.05
2024-05-09T16:48:14.972Z,18.73
2024-05-09T16:53:21.439Z,18.89
2024-05-09T16:58:26.612Z,18.89
2024-05-09T17:03:34.096Z,18.41
2024-05-09T17:08:40.476Z,17.85
2024-05-09T17:13:48.177Z,18.07
2024-05-09T17:18:55.974Z,18.05
2024-05-09T17:24:00.663Z,18.14
2024-05-09T17:29:07.281Z,17.88
2024-05-09T17:34:16.067Z,17.74
2024-05-09T17:39:20.981Z,18.05
2024-05-09T17:44:27.044Z,18.08
2024-05-09T17:49:34.543Z,18.14
2024-05-09T17:54:39.275Z,18.05
2024-05-09T17:59:44.055Z,17.99
2024-05-09T18:04:51.496Z,17.93
2024-05-09T18:09:56.270Z,17.77
2024-05-09T18:15:01.958Z,17.66
2024-05-09T18:20:17.216Z,17.44
2024-05-09T18:25:24.644Z,17.23
2024-05-09T18:30:34.734Z,17.07
2024-05-09T18:35:45.359Z,16.97
2024-05-09T18:40:50.435Z,16.72
2024-05-09T18:45:55.256Z,16.58
2024-05-09T18:51:03.464Z,16.45
2024-05-09T18:56:09.526Z,16.37
2024-05-09T19:01:14.423Z,16.20
2024-05-09T19:06:24.699Z,16.16
2024-05-09T19:11:29.603Z,15.98
2024-05-09T19:16:34.415Z,15.82
2024-05-09T19:21:42.997Z,15.67
2024-05-09T19:26:47.861Z,15.65
2024-05-09T19:31:52.746Z,15.49
2024-05-09T19:37:01.453Z,15.37
2024-05-09T19:42:06.672Z,15.26
2024-05-09T19:47:11.458Z,15.12
2024-05-09T19:52:18.811Z,15.04
2024-05-09T19:57:23.590Z,14.90
2024-05-09T20:02:28.508Z,14.83
2024-05-09T20:07:37.584Z,14.61
2024-05-09T20:12:42.302Z,14.61
2024-05-09T20:17:47.377Z,14.48
2024-05-09T20:22:54.746Z,14.38
2024-05-09T20:27:59.569Z,14.40
2024-05-09T20:33:07.064Z,14.21
2024-05-09T20:38:15.804Z,14.09
2024-05-09T20:43:20.872Z,14.01
2024-05-09T20:48:26.135Z,13.88
2024-05-09T20:53:33.507Z,13.70
2024-05-09T20:58:38.232Z,13.60
2024-05-09T21:03:43.945Z,13.54
2024-05-09T21:08:51.335Z,13.43
2024-05-09T21:13:56.207Z,13.39
2024-05-09T21:19:01.001Z,13.34
2024-05-09T21:24:08.791Z,13.25
2024-05-09T21:29:13.583Z,13.02
2024-05-09T21:34:18.383Z,13.03
2024-05-09T21:39:26.006Z,12.64
2024-05-09T21:44:30.934Z,12.72
2024-05-09T21:49:35.690Z,12.59
2024-05-09T21:54:43.099Z,12.51
2024-05-09T21:59:47.740Z,12.42
2024-05-09T22:04:52.497Z,12.41
2024-05-09T22:10:00.224Z,12.24
2024-05-09T22:15:05.039Z,12.16
2024-05-09T22:20:18.088Z,12.07
2024-05-09T22:25:31.044Z,12.03
2024-05-09T22:30:39.596Z,11.98
2024-05-09T22:35:45.378Z,11.89
2024-05-09T22:40:52.779Z,11.87
2024-05-09T22:45:57.420Z,11.78
2024-05-09T22:51:02.099Z,11.53
2024-05-09T22:56:10.205Z,11.52
2024-05-09T23:01:17.516Z,11.43
2024-05-09T23:06:22.464Z,11.33
2024-05-09T23:11:29.746Z,11.25
2024-05-09T23:16:34.487Z,11.25
2024-05-09T23:21:41.252Z,11.04
2024-05-09T23:26:48.528Z,11.04
2024-05-09T23:31:53.423Z,10.89
2024-05-09T23:36:58.113Z,10.93
2024-05-09T23:42:05.741Z,10.78
2024-05-09T23:47:11.012Z,10.56
2024-05-09T23:52:15.980Z,10.31
2024-05-09T23:57:23.850Z,10.47
